Time;durP1;ratioP1;P1;durP2;ratioP2;P2;SDS_P1;SDS_P2;PMS_P1;PMS_P2;Temp;Humidity;BMP_temperature;BMP_pressure;BME280_temperature;BME280_humidity;BME280_pressure;Samples;Min_cycle;Max_cycle;Signal;HPM_P1;HPM_P2
2023/07/30 00:01:50;;;;;;;24.73;3.90;;;;;;;17.97;100.00;100885.25;5047658;28;20569;-74
2023/07/30 00:04:15;;;;;;;17.90;3.83;;;;;;;17.90;100.00;100882.09;5046112;28;20064;-74
2023/07/30 00:06:41;;;;;;;23.52;4.60;;;;;;;17.97;100.00;100893.22;5047632;28;20453;-72
2023/07/30 00:09:06;;;;;;;22.35;4.38;;;;;;;17.94;100.00;100891.59;5047589;28;20516;-73
2023/07/30 00:11:31;;;;;;;14.80;3.15;;;;;;;17.97;100.00;100895.91;5051622;28;20061;-74
2023/07/30 00:13:57;;;;;;;19.00;3.65;;;;;;;18.01;100.00;100897.41;5051319;28;20115;-74
2023/07/30 00:16:22;;;;;;;21.40;3.58;;;;;;;18.01;100.00;100892.06;5050166;28;20036;-65
2023/07/30 00:18:48;;;;;;;21.08;4.07;;;;;;;18.02;100.00;100885.78;5047409;28;20034;-71
2023/07/30 00:21:13;;;;;;;17.50;4.13;;;;;;;18.00;100.00;100891.22;5031652;28;20028;-72
2023/07/30 00:23:38;;;;;;;19.35;3.80;;;;;;;17.97;100.00;100890.56;5033805;28;20087;-65
2023/07/30 00:26:04;;;;;;;24.92;4.78;;;;;;;17.98;100.00;100894.94;5053018;28;20108;-73
2023/07/30 00:28:29;;;;;;;18.40;4.72;;;;;;;17.97;100.00;100899.41;5052009;28;20501;-73
2023/07/30 00:30:54;;;;;;;22.85;4.55;;;;;;;17.91;100.00;100887.31;5051271;28;20373;-76
2023/07/30 00:33:20;;;;;;;18.83;4.10;;;;;;;17.96;100.00;100899.50;5051881;28;20469;-74
2023/07/30 00:35:45;;;;;;;26.73;4.28;;;;;;;17.92;100.00;100902.38;5049845;28;20462;-70
2023/07/30 00:38:10;;;;;;;29.67;4.18;;;;;;;17.86;100.00;100900.13;5050979;28;20447;-73
2023/07/30 00:40:40;;;;;;;28.55;4.90;;;;;;;17.83;100.00;100900.31;5049409;28;20112;-74
2023/07/30 00:43:05;;;;;;;21.60;3.85;;;;;;;17.88;100.00;100900.00;5083966;28;20032;-73
2023/07/30 00:45:31;;;;;;;28.73;4.22;;;;;;;17.90;100.00;100904.28;5050128;28;20096;-73
2023/07/30 00:47:57;;;;;;;23.23;4.50;;;;;;;17.96;100.00;100912.81;5049664;28;20481;-64
2023/07/30 00:50:22;;;;;;;19.75;4.22;;;;;;;18.00;100.00;100909.03;5050067;28;20109;-62
2023/07/30 00:52:48;;;;;;;22.48;4.70;;;;;;;18.08;100.00;100913.84;5051125;28;20389;-73
2023/07/30 00:55:14;;;;;;;24.05;4.65;;;;;;;18.13;100.00;100917.13;5033464;28;20061;-70
2023/07/30 00:57:41;;;;;;;25.60;4.57;;;;;;;18.20;100.00;100915.75;5049147;28;20029;-73
2023/07/30 01:00:08;;;;;;;31.95;5.22;;;;;;;18.19;100.00;100912.22;5050782;28;20606;-72
2023/07/30 01:02:35;;;;;;;29.33;4.57;;;;;;;18.27;100.00;100913.56;5049465;28;20393;-73
2023/07/30 01:05:01;;;;;;;22.83;4.53;;;;;;;18.34;100.00;100914.88;5050226;28;20044;-70
2023/07/30 01:07:26;;;;;;;26.33;4.68;;;;;;;18.34;100.00;100909.53;5049267;28;20037;-73
2023/07/30 01:09:52;;;;;;;27.33;5.38;;;;;;;18.38;100.00;100916.38;5052311;28;20087;-74
2023/07/30 01:12:17;;;;;;;26.02;4.90;;;;;;;18.40;100.00;100919.81;5051481;28;20492;-63
2023/07/30 01:14:45;;;;;;;27.88;4.55;;;;;;;18.40;100.00;100916.25;5050937;28;20785;-68
2023/07/30 01:17:11;;;;;;;29.17;5.07;;;;;;;18.39;100.00;100910.06;5049396;28;20041;-63
2023/07/30 01:19:36;;;;;;;30.83;4.93;;;;;;;18.42;100.00;100912.53;5050608;28;20025;-71
2023/07/30 01:22:02;;;;;;;29.67;4.50;;;;;;;18.36;100.00;100923.59;5049138;28;20025;-70
2023/07/30 01:24:27;;;;;;;26.83;4.65;;;;;;;18.31;100.00;100915.91;5050160;28;20066;-71
2023/07/30 01:27:00;;;;;;;38.33;5.20;;;;;;;18.30;100.00;100918.66;5051312;28;20113;-69
2023/07/30 01:29:31;;;;;;;28.58;4.75;;;;;;;18.37;100.00;100919.13;5049942;28;20021;-73
2023/07/30 01:32:02;;;;;;;28.83;5.00;;;;;;;18.25;100.00;100918.13;5051145;28;20031;-69
2023/07/30 01:34:28;;;;;;;31.83;5.63;;;;;;;18.29;100.00;100919.63;5050950;28;20029;-64
2023/07/30 01:36:54;;;;;;;30.98;4.85;;;;;;;18.24;100.00;100916.44;5050860;28;20025;-70
2023/07/30 01:39:20;;;;;;;31.30;5.50;;;;;;;18.27;100.00;100926.91;5051176;28;20036;-68
2023/07/30 01:41:45;;;;;;;32.42;5.80;;;;;;;18.26;100.00;100927.81;5084718;28;20033;-73
2023/07/30 01:44:11;;;;;;;36.45;5.75;;;;;;;18.32;100.00;100916.75;5048907;28;20021;-72
2023/07/30 01:46:36;;;;;;;29.60;5.15;;;;;;;18.23;100.00;100920.03;5048564;28;20029;-71
2023/07/30 01:49:02;;;;;;;33.75;5.60;;;;;;;18.22;100.00;100926.31;5049188;28;20040;-63
2023/07/30 01:51:27;;;;;;;30.75;5.53;;;;;;;18.25;100.00;100921.66;5049494;28;20024;-74
2023/07/30 01:53:52;;;;;;;29.98;4.40;;;;;;;18.20;100.00;100923.75;5048739;28;20025;-66
2023/07/30 01:56:18;;;;;;;33.25;5.28;;;;;;;18.17;100.00;100924.81;5048986;28;20151;-63
2023/07/30 01:58:43;;;;;;;31.63;5.38;;;;;;;18.19;100.00;100928.22;5049586;28;20021;-77
2023/07/30 02:01:09;;;;;;;34.00;5.40;;;;;;;18.17;100.00;100926.63;5030311;28;20058;-73
2023/07/30 02:03:34;;;;;;;31.35;5.93;;;;;;;18.15;100.00;100925.88;5048807;28;20080;-76
2023/07/30 02:05:59;;;;;;;35.08;4.97;;;;;;;18.18;100.00;100931.84;5050102;28;20029;-78
2023/07/30 02:08:25;;;;;;;30.08;5.15;;;;;;;18.19;100.00;100933.56;5049045;28;20103;-66
2023/07/30 02:10:59;;;;;;;31.27;5.88;;;;;;;18.23;100.00;100933.34;5049588;28;20029;-76
2023/07/30 02:13:25;;;;;;;36.78;5.40;;;;;;;18.22;100.00;100932.53;5048745;28;20108;-72
2023/07/30 02:15:51;;;;;;;35.60;5.55;;;;;;;18.22;100.00;100929.84;5049089;28;20045;-62
2023/07/30 02:18:16;;;;;;;26.15;4.65;;;;;;;18.25;100.00;100929.66;5048971;28;20405;-73
2023/07/30 02:20:42;;;;;;;24.40;5.03;;;;;;;18.29;100.00;100928.50;5047931;28;20495;-74
2023/07/30 02:23:08;;;;;;;27.80;4.18;;;;;;;18.31;100.00;100926.56;5049142;28;20071;-77
2023/07/30 02:25:33;;;;;;;28.25;5.00;;;;;;;18.36;100.00;100923.59;5048561;28;20045;-74
2023/07/30 02:28:00;;;;;;;29.48;5.75;;;;;;;18.22;100.00;100926.31;5048135;28;20017;-70
2023/07/30 02:30:25;;;;;;;28.60;5.03;;;;;;;18.32;100.00;100916.75;5048462;28;20036;-71
2023/07/30 02:32:51;;;;;;;25.85;4.63;;;;;;;18.36;100.00;100918.25;5047947;28;20049;-74
2023/07/30 02:35:16;;;;;;;32.47;5.55;;;;;;;18.39;100.00;100918.06;5049259;28;20028;-74
2023/07/30 02:37:42;;;;;;;33.55;5.07;;;;;;;18.37;100.00;100914.66;5048541;28;20028;-70
2023/07/30 02:40:08;;;;;;;32.88;5.07;;;;;;;18.36;100.00;100912.09;5048996;28;20493;-74
2023/07/30 02:42:33;;;;;;;38.90;6.15;;;;;;;18.31;100.00;100921.22;5048976;28;20648;-65
2023/07/30 02:44:58;;;;;;;25.15;4.75;;;;;;;18.43;100.00;100910.72;5049229;28;20681;-74
2023/07/30 02:47:24;;;;;;;36.05;5.45;;;;;;;18.42;100.00;100909.88;5049588;28;20041;-76
2023/07/30 02:49:50;;;;;;;39.95;5.30;;;;;;;18.41;100.00;100908.16;5048542;28;20051;-73
2023/07/30 02:52:15;;;;;;;32.17;5.28;;;;;;;18.39;100.00;100912.72;5048810;28;20021;-76
2023/07/30 02:54:40;;;;;;;28.90;4.95;;;;;;;18.33;100.00;100910.47;5047132;28;20461;-76
2023/07/30 02:57:06;;;;;;;30.02;5.57;;;;;;;18.36;100.00;100912.94;5048875;28;20060;-77
2023/07/30 02:59:35;;;;;;;30.55;4.68;;;;;;;18.30;100.00;100905.31;5047127;28;20048;-64
2023/07/30 03:02:01;;;;;;;25.27;5.05;;;;;;;18.26;100.00;100911.81;5047891;28;20064;-76
2023/07/30 03:04:26;;;;;;;26.95;5.28;;;;;;;18.25;100.00;100910.13;5047395;28;20045;-74
2023/07/30 03:06:51;;;;;;;29.63;4.60;;;;;;;18.23;100.00;100912.03;5048254;28;20059;-68
2023/07/30 03:09:17;;;;;;;26.15;4.32;;;;;;;18.15;100.00;100909.88;5047732;28;20029;-73
2023/07/30 03:11:42;;;;;;;32.17;4.70;;;;;;;18.13;100.00;100907.31;5045897;28;20037;-78
2023/07/30 03:14:08;;;;;;;28.95;5.03;;;;;;;18.05;100.00;100915.78;5047653;28;20120;-74
2023/07/30 03:16:33;;;;;;;31.30;4.63;;;;;;;18.02;100.00;100910.63;5045058;28;20056;-72
2023/07/30 03:18:58;;;;;;;30.83;5.78;;;;;;;18.04;100.00;100918.53;5046953;28;20406;-75
2023/07/30 03:21:24;;;;;;;32.15;4.72;;;;;;;18.01;100.00;100918.72;5047042;28;20025;-74
2023/07/30 03:23:49;;;;;;;34.90;5.25;;;;;;;17.96;100.00;100918.16;5047430;28;20067;-74
2023/07/30 03:26:15;;;;;;;35.22;5.30;;;;;;;18.00;100.00;100919.69;5046852;28;20021;-69
2023/07/30 03:28:40;;;;;;;29.50;4.95;;;;;;;18.01;100.00;100918.72;5046954;28;20420;-74
2023/07/30 03:31:05;;;;;;;24.02;5.00;;;;;;;18.01;100.00;100918.72;5046809;28;20052;-75
2023/07/30 03:33:31;;;;;;;35.17;5.47;;;;;;;18.03;100.00;100916.84;5047981;28;20057;-73
2023/07/30 03:35:56;;;;;;;28.27;4.90;;;;;;;18.01;100.00;100924.06;5042859;28;20056;-72
2023/07/30 03:38:21;;;;;;;27.13;5.10;;;;;;;17.99;100.00;100924.16;5047786;28;20032;-70
2023/07/30 03:40:47;;;;;;;29.48;5.10;;;;;;;17.99;100.00;100916.16;5045832;28;20029;-71
2023/07/30 03:43:12;;;;;;;24.35;4.60;;;;;;;18.04;100.00;100923.88;5047512;28;20025;-63
2023/07/30 03:45:37;;;;;;;33.10;5.43;;;;;;;18.11;100.00;100913.69;5048018;28;20028;-74
2023/07/30 03:48:03;;;;;;;26.55;4.63;;;;;;;18.03;100.00;100923.00;5051239;28;20390;-73
2023/07/30 03:50:28;;;;;;;30.08;4.75;;;;;;;17.99;100.00;100921.50;5050486;28;20032;-77
2023/07/30 03:52:54;;;;;;;23.35;4.57;;;;;;;18.03;100.00;100927.50;5050694;28;20029;-75
2023/07/30 03:55:19;;;;;;;28.05;4.55;;;;;;;17.97;100.00;100923.38;5051336;28;20037;-72
2023/07/30 03:57:44;;;;;;;33.10;6.22;;;;;;;17.90;100.00;100916.75;5036026;28;20030;-73
2023/07/30 04:00:10;;;;;;;30.92;4.97;;;;;;;17.86;100.00;100931.22;5030406;28;20044;-76
2023/07/30 04:02:35;;;;;;;29.27;5.85;;;;;;;17.85;100.00;100932.19;5030851;28;20034;-61
2023/07/30 04:05:01;;;;;;;21.25;4.40;;;;;;;17.81;100.00;100928.84;5038756;28;20086;-72
2023/07/30 04:07:26;;;;;;;28.88;5.10;;;;;;;17.79;100.00;100930.78;5050942;28;20138;-77
2023/07/30 04:09:51;;;;;;;33.33;4.55;;;;;;;17.75;100.00;100931.91;5050544;28;20071;-74
2023/07/30 04:12:19;;;;;;;29.15;4.50;;;;;;;17.73;100.00;100936.50;5050675;28;20108;-63
2023/07/30 04:14:44;;;;;;;30.15;5.80;;;;;;;17.72;100.00;100934.75;5049251;28;20029;-74
2023/07/30 04:17:09;;;;;;;28.92;5.22;;;;;;;17.68;100.00;100936.78;5050572;28;20053;-63
2023/07/30 04:19:35;;;;;;;29.40;4.93;;;;;;;17.67;100.00;100932.41;5050449;28;20547;-69
2023/07/30 04:22:00;;;;;;;31.17;5.18;;;;;;;17.61;100.00;100936.28;5050856;28;20032;-73
2023/07/30 04:24:26;;;;;;;30.73;4.93;;;;;;;17.62;100.00;100940.69;5050307;28;20024;-70
2023/07/30 04:26:51;;;;;;;28.42;4.88;;;;;;;17.59;100.00;100934.69;5050405;28;20025;-71
2023/07/30 04:29:17;;;;;;;31.92;4.90;;;;;;;17.52;100.00;100942.22;5048384;28;20355;-73
2023/07/30 04:31:42;;;;;;;23.20;5.07;;;;;;;17.60;100.00;100936.38;5050551;28;20128;-74
2023/07/30 04:34:07;;;;;;;27.98;4.80;;;;;;;17.63;100.00;100933.53;5049923;28;20064;-71
2023/07/30 04:36:33;;;;;;;21.05;4.07;;;;;;;17.65;100.00;100936.97;5049002;28;20060;-72
2023/07/30 04:38:58;;;;;;;27.98;5.25;;;;;;;17.66;100.00;100939.53;5050826;28;20040;-73
2023/07/30 04:41:23;;;;;;;28.92;4.50;;;;;;;17.71;100.00;100939.25;5048567;28;20044;-74
2023/07/30 04:43:49;;;;;;;34.63;5.43;;;;;;;17.74;100.00;100941.72;5051373;28;20132;-72
2023/07/30 04:46:14;;;;;;;28.67;5.22;;;;;;;17.75;100.00;100938.09;5048729;28;20029;-70
2023/07/30 04:48:40;;;;;;;30.73;4.78;;;;;;;17.79;100.00;100933.44;5050784;28;20029;-70
2023/07/30 04:51:06;;;;;;;27.67;4.75;;;;;;;17.81;100.00;100945.72;5049749;28;20144;-66
2023/07/30 04:53:31;;;;;;;24.90;4.60;;;;;;;17.83;100.00;100942.09;5049842;28;20112;-71
2023/07/30 04:55:57;;;;;;;32.97;4.95;;;;;;;17.84;100.00;100947.31;5049501;28;20025;-72
2023/07/30 04:58:22;;;;;;;20.45;4.30;;;;;;;17.87;100.00;100947.13;5049202;28;20114;-67
2023/07/30 05:00:48;;;;;;;27.08;4.57;;;;;;;17.81;100.00;100944.84;5049024;28;20029;-75
2023/07/30 05:03:14;;;;;;;29.67;5.18;;;;;;;17.79;100.00;100938.78;5050295;28;20516;-76
2023/07/30 05:05:39;;;;;;;22.67;4.30;;;;;;;17.79;100.00;100941.44;5048731;28;20622;-74
2023/07/30 05:08:04;;;;;;;23.48;4.57;;;;;;;17.84;100.00;100952.66;5050340;28;20029;-64
2023/07/30 05:10:30;;;;;;;33.88;5.43;;;;;;;17.81;100.00;100943.03;5049158;28;20668;-70
2023/07/30 05:12:55;;;;;;;26.00;4.55;;;;;;;17.76;100.00;100946.97;5049634;28;20036;-74
2023/07/30 05:15:20;;;;;;;26.58;5.00;;;;;;;17.85;100.00;100941.03;5049702;28;20021;-71
2023/07/30 05:17:46;;;;;;;33.50;4.80;;;;;;;17.85;100.00;100950.84;5050742;28;20029;-74
2023/07/30 05:20:11;;;;;;;20.77;4.70;;;;;;;17.90;100.00;100948.72;5050796;28;20051;-74
2023/07/30 05:22:36;;;;;;;33.22;4.97;;;;;;;17.89;100.00;100947.91;5048477;28;20037;-69
2023/07/30 05:25:02;;;;;;;36.25;5.28;;;;;;;17.90;100.00;100946.06;5049123;28;20036;-74
2023/07/30 05:27:28;;;;;;;29.40;4.85;;;;;;;17.98;100.00;100956.25;5049200;28;20055;-71
2023/07/30 05:29:54;;;;;;;26.20;5.30;;;;;;;17.99;100.00;100952.63;5050083;28;20105;-73
2023/07/30 05:32:19;;;;;;;22.63;4.38;;;;;;;18.07;100.00;100955.66;5051535;28;20052;-69
2023/07/30 05:34:45;;;;;;;25.30;5.00;;;;;;;18.18;100.00;100955.84;5049237;28;20083;-76
2023/07/30 05:37:10;;;;;;;29.80;5.38;;;;;;;18.24;100.00;100953.75;5049351;28;20025;-70
2023/07/30 05:39:35;;;;;;;24.63;4.45;;;;;;;18.33;100.00;100952.31;5049390;28;20021;-72
2023/07/30 05:42:01;;;;;;;29.85;5.13;;;;;;;18.42;100.00;100949.88;5049044;28;20477;-75
2023/07/30 05:44:26;;;;;;;29.20;5.15;;;;;;;18.55;100.00;100955.25;5047906;28;20036;-69
2023/07/30 05:46:52;;;;;;;20.75;3.97;;;;;;;18.58;100.00;100950.69;5049184;28;20027;-72
2023/07/30 05:49:17;;;;;;;23.42;3.90;;;;;;;18.64;100.00;100948.47;5049226;28;20433;-74
2023/07/30 05:51:42;;;;;;;28.10;5.28;;;;;;;18.67;100.00;100950.91;5048214;28;20362;-73
2023/07/30 05:54:08;;;;;;;23.63;4.38;;;;;;;18.68;100.00;100949.13;5047833;28;20025;-76
2023/07/30 05:56:33;;;;;;;22.80;4.63;;;;;;;18.69;100.00;100958.81;5048817;28;20029;-68
2023/07/30 05:58:58;;;;;;;22.15;3.85;;;;;;;18.77;100.00;100955.66;5048831;28;20033;-72
2023/07/30 06:01:24;;;;;;;32.03;5.35;;;;;;;18.76;100.00;100959.28;5047791;28;20016;-72
2023/07/30 06:03:49;;;;;;;23.00;4.20;;;;;;;18.91;100.00;100960.06;5048653;28;20488;-71
2023/07/30 06:06:15;;;;;;;22.73;4.75;;;;;;;19.02;100.00;100964.69;5048628;28;20017;-71
2023/07/30 06:08:40;;;;;;;18.95;3.70;;;;;;;18.98;100.00;100956.03;5047316;28;20111;-69
2023/07/30 06:11:05;;;;;;;18.95;4.40;;;;;;;18.91;100.00;100952.06;5048506;28;20021;-71
2023/07/30 06:13:31;;;;;;;20.80;4.30;;;;;;;19.07;100.00;100943.84;5048521;28;20029;-61
2023/07/30 06:15:56;;;;;;;24.83;4.63;;;;;;;19.03;100.00;100937.03;5047935;28;20377;-72
2023/07/30 06:18:21;;;;;;;29.45;4.13;;;;;;;19.12;100.00;100940.91;5047124;28;20438;-71
2023/07/30 06:20:47;;;;;;;20.17;3.88;;;;;;;19.15;100.00;100940.69;5047869;28;20075;-73
2023/07/30 06:23:12;;;;;;;20.83;4.18;;;;;;;19.09;100.00;100949.97;5047088;28;20051;-72
2023/07/30 06:25:37;;;;;;;19.40;4.18;;;;;;;19.02;100.00;100946.00;5048043;28;20029;-68
2023/07/30 06:28:04;;;;;;;16.17;3.90;;;;;;;19.02;100.00;100949.50;5048106;28;20112;-72
2023/07/30 06:30:30;;;;;;;20.25;4.80;;;;;;;18.88;100.00;100954.94;5046680;28;20456;-69
2023/07/30 06:32:55;;;;;;;23.48;4.57;;;;;;;18.81;100.00;100962.47;5047802;28;20025;-73
2023/07/30 06:35:20;;;;;;;21.88;3.95;;;;;;;18.90;100.00;100958.38;5048597;28;20052;-72
2023/07/30 06:37:46;;;;;;;30.38;4.60;;;;;;;18.90;100.00;100958.38;5046330;28;20032;-72
2023/07/30 06:40:11;;;;;;;25.55;4.72;;;;;;;18.91;100.00;100963.56;5047942;28;20864;-67
2023/07/30 06:42:37;;;;;;;25.63;4.40;;;;;;;19.15;100.00;100962.88;5047809;28;20473;-68
2023/07/30 06:45:03;;;;;;;20.90;4.00;;;;;;;19.32;100.00;100956.41;5033995;28;20449;-71
2023/07/30 06:47:28;;;;;;;24.67;4.32;;;;;;;19.34;100.00;100960.78;5047330;28;20033;-64
2023/07/30 06:49:54;;;;;;;19.00;3.58;;;;;;;19.41;100.00;100962.91;5034782;28;20060;-73
2023/07/30 06:52:20;;;;;;;19.15;3.60;;;;;;;19.49;100.00;100966.88;5048024;28;20097;-71
2023/07/30 06:54:45;;;;;;;20.08;4.03;;;;;;;19.52;100.00;100963.97;5034247;28;20465;-65
2023/07/30 06:57:10;;;;;;;17.10;3.65;;;;;;;19.72;100.00;100957.25;5047913;28;20070;-69
2023/07/30 06:59:36;;;;;;;19.60;4.03;;;;;;;19.85;100.00;100948.31;5046586;28;20484;-74
2023/07/30 07:02:01;;;;;;;23.35;4.22;;;;;;;20.01;100.00;100961.47;5047741;28;20053;-71
2023/07/30 07:04:26;;;;;;;21.58;4.03;;;;;;;19.97;100.00;100951.94;5047155;28;20045;-68
2023/07/30 07:06:52;;;;;;;23.55;3.72;;;;;;;19.76;100.00;100955.19;5048405;28;20380;-67
2023/07/30 07:09:17;;;;;;;21.52;3.50;;;;;;;19.59;100.00;100959.06;5048154;28;20025;-71
2023/07/30 07:11:43;;;;;;;15.85;3.72;;;;;;;19.49;100.00;100948.16;5047167;28;20051;-74
2023/07/30 07:14:08;;;;;;;14.43;3.70;;;;;;;19.42;100.00;100947.75;5047002;28;20033;-63
2023/07/30 07:16:34;;;;;;;22.83;4.28;;;;;;;19.37;100.00;100957.88;5048098;28;20025;-70
2023/07/30 07:18:59;;;;;;;21.40;3.88;;;;;;;19.51;100.00;100962.28;5048240;28;20603;-74
2023/07/30 07:21:26;;;;;;;19.33;3.90;;;;;;;19.38;100.00;100964.97;5047628;28;20028;-68
2023/07/30 07:23:51;;;;;;;20.15;4.38;;;;;;;19.17;100.00;100963.66;5049263;28;20029;-69
2023/07/30 07:26:17;;;;;;;24.13;3.95;;;;;;;19.12;100.00;100976.47;5048773;28;20082;-70
2023/07/30 07:28:42;;;;;;;16.90;3.92;;;;;;;19.10;100.00;100964.16;5047741;28;20035;-71
2023/07/30 07:31:07;;;;;;;21.23;3.75;;;;;;;19.13;100.00;100980.00;5048049;28;20025;-72
2023/07/30 07:33:33;;;;;;;14.95;3.70;;;;;;;19.08;100.00;100987.47;5047012;28;20025;-71
2023/07/30 07:36:06;;;;;;;24.15;3.35;;;;;;;19.00;100.00;101006.66;5081172;28;20112;-74
2023/07/30 07:38:32;;;;;;;17.92;3.75;;;;;;;18.99;100.00;101011.13;5047402;28;20495;-68
2023/07/30 07:40:57;;;;;;;16.67;3.78;;;;;;;18.93;100.00;101006.19;5047507;28;20392;-66
2023/07/30 07:43:23;;;;;;;23.10;4.25;;;;;;;18.79;100.00;101007.97;5046678;28;20029;-68
2023/07/30 07:45:48;;;;;;;26.05;4.07;;;;;;;18.83;100.00;100995.28;5046354;28;20037;-62
2023/07/30 07:48:13;;;;;;;26.52;4.47;;;;;;;18.96;100.00;101005.97;5047772;28;20109;-69
2023/07/30 07:50:39;;;;;;;23.38;4.43;;;;;;;19.06;100.00;101009.75;5047110;28;20036;-65
2023/07/30 07:53:04;;;;;;;19.15;4.40;;;;;;;19.08;100.00;100999.00;5047464;28;20075;-70
2023/07/30 07:55:29;;;;;;;17.27;3.58;;;;;;;19.38;100.00;101005.03;5047228;28;20057;-71
2023/07/30 07:57:55;;;;;;;13.57;3.03;;;;;;;19.72;100.00;101009.84;5046127;28;20053;-71
2023/07/30 08:00:20;;;;;;;13.80;2.95;;;;;;;19.78;100.00;101012.09;5046978;28;20029;-63
2023/07/30 08:02:46;;;;;;;13.15;2.70;;;;;;;20.02;100.00;101009.50;5012514;28;20033;-72
2023/07/30 08:05:11;;;;;;;13.55;2.28;;;;;;;20.22;100.00;101015.25;5046818;28;20025;-71
2023/07/30 08:07:36;;;;;;;16.98;2.53;;;;;;;20.28;100.00;101020.16;5045878;28;20048;-70
2023/07/30 08:10:02;;;;;;;7.97;2.38;;;;;;;20.38;100.00;101014.97;5047925;28;20032;-64
2023/07/30 08:12:27;;;;;;;11.25;2.28;;;;;;;20.42;100.00;101019.16;5046455;28;20029;-74
2023/07/30 08:14:53;;;;;;;13.30;2.15;;;;;;;20.27;100.00;101014.91;5046667;28;20099;-67
2023/07/30 08:17:18;;;;;;;13.15;2.10;;;;;;;20.14;100.00;101029.16;5047425;28;20031;-75
2023/07/30 08:19:44;;;;;;;11.15;2.17;;;;;;;19.99;100.00;101030.25;5046575;28;20590;-69
2023/07/30 08:22:09;;;;;;;9.55;2.78;;;;;;;20.10;100.00;101026.84;5047710;28;20028;-70
2023/07/30 08:24:34;;;;;;;8.18;2.03;;;;;;;20.12;100.00;101023.09;5045567;28;20051;-69
2023/07/30 08:27:00;;;;;;;7.93;1.92;;;;;;;20.22;100.00;101025.94;5047162;28;20029;-59
2023/07/30 08:29:26;;;;;;;9.77;2.00;;;;;;;19.97;100.00;101018.78;5045779;28;20167;-67
2023/07/30 08:31:51;;;;;;;9.38;2.55;;;;;;;19.74;100.00;101031.97;5048691;28;20831;-66
2023/07/30 08:34:17;;;;;;;11.43;2.67;;;;;;;19.59;100.00;101029.41;5050569;28;20382;-68
2023/07/30 08:36:42;;;;;;;8.20;2.42;;;;;;;19.12;100.00;101027.22;5049807;28;20119;-62
2023/07/30 08:39:08;;;;;;;11.65;2.38;;;;;;;18.76;100.00;101029.53;5047013;28;20485;-67
2023/07/30 08:41:33;;;;;;;12.57;2.88;;;;;;;18.71;100.00;101020.09;5049671;28;20025;-71
2023/07/30 08:43:59;;;;;;;15.43;2.83;;;;;;;18.80;100.00;101024.84;5048782;28;20029;-67
2023/07/30 08:46:24;;;;;;;8.43;2.42;;;;;;;18.85;100.00;101025.41;5050049;28;20029;-71
2023/07/30 08:48:49;;;;;;;16.77;2.78;;;;;;;19.11;100.00;101038.00;5048051;28;20028;-66
2023/07/30 08:51:15;;;;;;;13.07;2.22;;;;;;;19.39;100.00;101033.47;5050706;28;20476;-68
2023/07/30 08:53:41;;;;;;;10.80;2.47;;;;;;;19.60;100.00;101025.78;5045158;28;20232;-69
2023/07/30 08:56:07;;;;;;;13.25;2.85;;;;;;;19.51;100.00;101024.56;5041884;28;20112;-68
2023/07/30 08:58:33;;;;;;;11.43;2.47;;;;;;;19.69;100.00;101019.78;5049294;28;20021;-68
2023/07/30 09:00:59;;;;;;;9.77;2.30;;;;;;;19.82;100.00;101029.63;5047890;28;20040;-63
2023/07/30 09:03:27;;;;;;;9.93;2.47;;;;;;;19.87;100.00;101031.97;5047851;28;20037;-67
2023/07/30 09:05:52;;;;;;;9.55;2.45;;;;;;;19.81;100.00;101034.09;5048929;28;20115;-62
2023/07/30 09:08:17;;;;;;;12.40;2.55;;;;;;;19.81;100.00;101034.09;5049782;28;20039;-68
2023/07/30 09:10:43;;;;;;;11.25;2.60;;;;;;;20.15;100.00;101019.31;5050127;28;20091;-67
2023/07/30 09:13:08;;;;;;;11.68;2.25;;;;;;;20.33;100.00;101038.56;5045834;28;20060;-67
2023/07/30 09:15:38;;;;;;;14.57;3.17;;;;;;;20.52;100.00;101047.91;5048173;28;20013;-70
2023/07/30 09:18:05;;;;;;;12.32;2.05;;;;;;;20.54;100.00;101041.50;5044349;28;20052;-69
2023/07/30 09:20:40;;;;;;;11.95;2.70;;;;;;;20.38;100.00;101044.41;5049641;28;20357;-72
2023/07/30 09:23:09;;;;;;;10.65;2.88;;;;;;;20.27;100.00;101036.31;5051173;28;20025;-70
2023/07/30 09:25:38;;;;;;;11.80;2.72;;;;;;;20.44;100.00;101043.13;5046970;28;20027;-69
2023/07/30 09:28:05;;;;;;;8.50;2.03;;;;;;;20.67;100.00;101041.44;5043111;28;20036;-65
2023/07/30 09:30:33;;;;;;;11.73;1.98;;;;;;;20.89;100.00;101039.81;5054824;28;20020;-68
2023/07/30 09:32:58;;;;;;;10.48;2.00;;;;;;;21.03;100.00;101056.72;5048589;28;20021;-67
2023/07/30 09:35:25;;;;;;;9.77;2.38;;;;;;;21.00;100.00;101040.88;5045706;28;20032;-71
2023/07/30 09:37:57;;;;;;;13.38;2.28;;;;;;;21.06;100.00;101056.47;5048663;28;20102;-63
2023/07/30 09:40:31;;;;;;;9.55;2.00;;;;;;;21.19;100.00;101051.91;5046995;28;20021;-71
2023/07/30 09:42:57;;;;;;;8.68;2.53;;;;;;;21.45;100.00;101062.47;5048440;28;20029;-69
2023/07/30 09:45:24;;;;;;;6.93;1.85;;;;;;;21.68;97.54;101049.13;5046671;28;20032;-64
2023/07/30 09:47:50;;;;;;;9.18;2.03;;;;;;;21.91;96.16;101054.50;5081088;28;20029;-70
2023/07/30 09:50:16;;;;;;;7.70;2.22;;;;;;;21.83;94.82;101089.13;5041625;28;20021;-66
2023/07/30 09:52:45;;;;;;;10.38;2.35;;;;;;;21.51;95.57;101071.00;5028932;28;20396;-70
2023/07/30 09:55:10;;;;;;;11.70;2.20;;;;;;;21.38;96.54;101098.75;5031823;28;20614;-71
2023/07/30 09:57:38;;;;;;;10.93;2.50;;;;;;;21.23;98.58;101073.09;5049122;28;20055;-69
2023/07/30 10:00:05;;;;;;;15.65;2.50;;;;;;;21.03;100.00;101078.13;5046161;28;20036;-73
2023/07/30 10:02:32;;;;;;;9.07;2.35;;;;;;;21.18;100.00;101068.09;5055442;28;20024;-73
2023/07/30 10:04:59;;;;;;;11.57;2.70;;;;;;;21.16;100.00;101075.41;5053120;28;20118;-64
2023/07/30 10:07:25;;;;;;;12.07;2.33;;;;;;;21.48;100.00;101092.66;5048233;28;20456;-69
2023/07/30 10:09:53;;;;;;;8.98;2.17;;;;;;;21.74;98.97;101079.09;5046925;28;20032;-69
2023/07/30 10:12:22;;;;;;;10.48;2.50;;;;;;;21.82;97.31;101080.22;5046436;28;20070;-71
2023/07/30 10:14:47;;;;;;;5.57;1.90;;;;;;;21.82;95.94;101079.34;5043949;28;20021;-68
2023/07/30 10:17:13;;;;;;;8.77;1.70;;;;;;;21.62;97.11;101095.16;5046927;28;20546;-66
2023/07/30 10:19:38;;;;;;;9.35;2.13;;;;;;;21.56;95.24;101092.94;5047617;28;20025;-70
2023/07/30 10:22:13;;;;;;;7.35;2.08;;;;;;;21.54;90.68;101109.16;5046161;28;20077;-67
2023/07/30 10:24:39;;;;;;;9.57;2.00;;;;;;;21.40;91.96;101098.63;5048406;28;20036;-67
2023/07/30 10:27:09;;;;;;;10.05;2.33;;;;;;;21.59;94.10;101100.75;5047567;28;20013;-69
2023/07/30 10:29:35;;;;;;;8.48;2.05;;;;;;;21.75;95.72;101104.91;5047961;28;20024;-70
2023/07/30 10:32:02;;;;;;;15.75;2.80;;;;;;;21.65;94.49;101088.69;5046237;28;20060;-64
2023/07/30 10:34:46;;;;;;;9.18;2.00;;;;;;;21.62;94.43;101100.53;5047980;28;20355;-69
2023/07/30 10:37:17;;;;;;;8.93;2.25;;;;;;;21.74;94.36;101109.44;5047932;28;20033;-69
2023/07/30 10:39:43;;;;;;;14.18;2.35;;;;;;;21.63;96.36;101118.31;5044687;28;20056;-72
2023/07/30 10:42:08;;;;;;;11.27;2.08;;;;;;;21.46;97.87;101133.00;5035975;28;20473;-71
2023/07/30 10:44:35;;;;;;;10.80;2.15;;;;;;;21.24;100.00;101136.44;5048050;28;20033;-70
2023/07/30 10:47:03;;;;;;;11.68;2.63;;;;;;;21.26;99.70;101150.59;5048419;28;20125;-68
2023/07/30 10:49:28;;;;;;;12.93;2.53;;;;;;;21.25;98.22;101127.44;5048276;28;20024;-64
2023/07/30 10:52:00;;;;;;;11.38;2.42;;;;;;;21.53;98.69;101128.03;5047609;28;20052;-68
2023/07/30 10:54:25;;;;;;;15.80;2.28;;;;;;;22.00;97.09;101127.19;5047558;28;20029;-68
2023/07/30 10:56:51;;;;;;;10.27;2.30;;;;;;;22.28;94.94;101122.34;5048915;28;20538;-69
2023/07/30 10:59:17;;;;;;;12.43;2.42;;;;;;;22.40;93.77;101132.09;5046700;28;20587;-62
2023/07/30 11:01:44;;;;;;;10.18;2.08;;;;;;;22.76;93.68;101115.84;5046731;28;20461;-70
2023/07/30 11:04:12;;;;;;;5.85;1.58;;;;;;;22.72;89.28;101139.41;5048340;28;20032;-69
2023/07/30 11:06:38;;;;;;;10.68;2.20;;;;;;;22.88;86.85;101135.47;5048435;28;20572;-69